Parker, Arizona
Current Conditions -  °F | °C
As of 11:15 PM on Friday 31 Oct 2014 (Local Time) from KHII Reporting Station
Clear Clear  
Wind Chill: 77°   Ceiling: Unl
Heat Index: 78°   Visibility: 10mi
Dew Point: 54°   Wind: 20mph
Humidity: 44%   Direction: 160°SSE
Pressure: 29.71"   Gusts: 24mph
Location:  34.15°N, 114.29°W
Report Text: KHII 010615Z AUTO 16017G21KT 10SM CLR 25/12 A2971 RMK AO2
Loading
Personal Weather Stations






























Interactive Weather Map
Tropical Storm Tracking
New forecast layout! Learn more

10-Day Weather Forecast

Advertisements
Track Severe Weather on mobile